Aviation Digital Data Service (ADDS)

Output produced by METARs form (2051 UTC 24 June 2018)
found at http://www.aviationweather.gov/adds/metars/
 
TAF UMBB 241705Z 2418/2503 25005MPS 6000 BKN015 SCT020CB 
     TEMPO 2418/2502 2000 SHRA BR BKN005 
       
UMGG 242000Z 16003MPS CAVOK 13/10 Q1015 R28/D NOSIG
TAF UMGG 241700Z 2418/2518 22006MPS 9999 BKN015 
     TEMPO 2418/2420 2000 SHRA BKN005 BKN020CB 
     TEMPO 2420/2505 1200 -SHRA BR BKN004 SCT020CB 
     TEMPO 2508/2518 22008G13MPS 2000 TSRA BKN005 BKN025CB
       
UMMG 241600Z 34003G06MPS 9999 BKN033 15/07 Q1010 NOSIG
TAF UMMG 241400Z 2415/2424 32005G10MPS 9999 BKN007CB BKN020 
     TEMPO 2415/2421 VRB13MPS 2500 -TSRA BKN005 
     TEMPO 2421/2424 29005MPS 2000 SHRA BR BKN005
       
TAF UMBB 241705Z 2418/2503 25005MPS 6000 BKN015 SCT020CB 
     TEMPO 2418/2502 2000 SHRA BR BKN005 
       
UMGG 242000Z 16003MPS CAVOK 13/10 Q1015 R28/D NOSIG
TAF UMGG 241700Z 2418/2518 22006MPS 9999 BKN015 
     TEMPO 2418/2420 2000 SHRA BKN005 BKN020CB 
     TEMPO 2420/2505 1200 -SHRA BR BKN004 SCT020CB 
     TEMPO 2508/2518 22008G13MPS 2000 TSRA BKN005 BKN025CB
       
UMII 241600Z 22006G09MPS 9999 SCT040 15/08 Q1010 R23/290050 NOSIG
TAF UMII 241405Z 2415/2424 23006G11MPS 9999 BKN010 
     TEMPO 2415/2424 VRB12MPS 2000 SHRA BKN005 BKN015CB
       
UMKK 242030Z 01001MPS 9999 -SHRA BKN023CB 14/11 Q1014 R24/29//60 NOSIG RMK QFE759/1012
TAF UMKK 242001Z 2421/2521 VRB01MPS 5000 BR BKN011 BKN015CB 
     TEMPO 2421/2506 2100 -SHRA BR BKN005 BKN012CB 
     BECMG 2506/2508 33005MPS 
     TEMPO 2509/2515 27003G08MPS 3100 -SHRA BKN007 BKN012CB
       
UMMG 241600Z 34003G06MPS 9999 BKN033 15/07 Q1010 NOSIG
TAF UMMG 241400Z 2415/2424 32005G10MPS 9999 BKN007CB BKN020 
     TEMPO 2415/2421 VRB13MPS 2500 -TSRA BKN005 
     TEMPO 2421/2424 29005MPS 2000 SHRA BR BKN005
       
UMMS 242030Z VRB01MPS 9999 BKN048CB BKN076 11/10 Q1013 R13/290055 NOSIG
TAF UMMS 241709Z 2417/2518 23006MPS 9999 BKN015 
     TEMPO 2417/2421 27009G14MPS 1500 TSRA BKN003 BKN020CB 
     TEMPO 2421/2506 1200 -SHRA BR BKN003 SCT020CB 
     TEMPO 2506/2518 22009G14MPS 1500 TSRA BKN004 SCT020CB
       
TAF UMOO 241100Z 2412/2421 23005G10MPS 8000 BKN015 
     TEMPO 2412/2421 VRB14MPS 3000 -SHRA BR BKN005 BKN015CB
       
UMMS 242030Z VRB01MPS 9999 BKN048CB BKN076 11/10 Q1013 R13/290055 NOSIG
TAF UMMS 241709Z 2417/2518 23006MPS 9999 BKN015 
     TEMPO 2417/2421 27009G14MPS 1500 TSRA BKN003 BKN020CB 
     TEMPO 2421/2506 1200 -SHRA BR BKN003 SCT020CB 
     TEMPO 2506/2518 22009G14MPS 1500 TSRA BKN004 SCT020CB
       
TAF UMOO 241100Z 2412/2421 23005G10MPS 8000 BKN015 
     TEMPO 2412/2421 VRB14MPS 3000 -SHRA BR BKN005 BKN015CB